Time,TemperatureF,DewpointF,PressureIn,WindDirection,WindDirectionDegrees,WindSpeedMPH,WindSpeedGustMPH,Humidity,HourlyPrecipIn,Conditions,Clouds,dailyrainin,SoftwareType,DateUTC
2013-09-02 00:00:00,71.3,68.5,29.78,SSW,210,0.0,0.0,91,0.00,,BKN047,0.00,VWS V14.01,2013-09-02 04:00:00,
2013-09-02 00:01:00,71.3,68.5,29.78,SSW,210,0.0,0.0,91,0.00,,BKN050,0.00,VWS V14.01,2013-09-02 04:01:00,
2013-09-02 00:03:00,71.3,68.5,29.78,SSW,210,0.0,0.0,91,0.00,,BKN050,0.00,VWS V14.01,2013-09-02 04:03:00,
2013-09-02 00:08:00,71.1,68.3,29.78,SSW,210,0.0,0.0,91,0.00,,BKN050,0.00,VWS V14.01,2013-09-02 04:08:00,
2013-09-02 00:13:00,71.1,68.7,29.78,SSW,210,0.0,0.0,92,0.00,,BKN050,0.00,VWS V14.01,2013-09-02 04:13:00,
2013-09-02 00:15:00,71.1,68.7,29.77,SSW,210,0.0,0.0,92,0.00,,BKN047,0.00,VWS V14.01,2013-09-02 04:15:00,
2013-09-02 00:18:00,71.1,68.7,29.77,SSW,210,0.0,0.0,92,0.00,,BKN050,0.00,VWS V14.01,2013-09-02 04:18:00,
2013-09-02 00:23:00,71.1,68.7,29.77,SSW,210,0.0,0.0,92,0.00,,BKN050,0.00,VWS V14.01,2013-09-02 04:23:00,
2013-09-02 00:28:00,70.9,68.5,29.77,SSW,210,0.0,0.0,92,0.00,,BKN050,0.00,VWS V14.01,2013-09-02 04:28:00,
2013-09-02 00:30:00,70.9,68.5,29.77,SSW,210,0.0,0.0,92,0.00,,BKN047,0.00,VWS V14.01,2013-09-02 04:30:00,
2013-09-02 00:33:00,70.9,68.5,29.77,SSW,210,0.0,0.0,92,0.00,,BKN050,0.00,VWS V14.01,2013-09-02 04:33:00,
2013-09-02 00:38:00,70.9,68.5,29.77,SSW,210,0.0,0.0,92,0.00,,BKN050,0.00,VWS V14.01,2013-09-02 04:38:00,
2013-09-02 00:43:00,70.8,68.4,29.77,SSW,210,0.0,0.0,92,0.00,,BKN050,0.00,VWS V14.01,2013-09-02 04:43:00,
2013-09-02 00:45:00,70.8,68.4,29.77,SSW,210,0.0,0.0,92,0.00,,BKN047,0.00,VWS V14.01,2013-09-02 04:45:00,
2013-09-02 00:48:00,70.6,68.2,29.77,SSW,210,0.0,0.0,92,0.00,,BKN050,0.00,VWS V14.01,2013-09-02 04:48:00,
2013-09-02 00:53:00,70.6,68.2,29.77,SSW,210,0.0,0.0,92,0.00,,BKN050,0.00,VWS V14.01,2013-09-02 04:53:00,
2013-09-02 00:58:00,70.4,68.0,29.77,SSW,210,0.0,0.0,92,0.00,,BKN050,0.00,VWS V14.01,2013-09-02 04:58:00,
2013-09-02 01:00:00,70.4,68.0,29.77,SSW,210,0.0,0.0,92,0.00,,BKN047,0.00,VWS V14.01,2013-09-02 05:00:00,
2013-09-02 01:03:00,70.4,68.0,29.77,SSW,210,0.0,0.0,92,0.00,,CLR,0.00,VWS V14.01,2013-09-02 05:03:00,
2013-09-02 01:08:00,70.4,68.3,29.77,SSW,210,0.0,0.0,93,0.00,,CLR,0.00,VWS V14.01,2013-09-02 05:08:00,
2013-09-02 01:13:00,70.4,68.3,29.77,SSW,210,0.0,0.0,93,0.00,,CLR,0.00,VWS V14.01,2013-09-02 05:13:00,
2013-09-02 01:15:00,70.4,68.3,29.77,SSW,210,0.0,0.0,93,0.00,,BKN047,0.00,VWS V14.01,2013-09-02 05:15:00,
2013-09-02 01:18:00,70.3,68.2,29.77,SSW,210,0.0,0.0,93,0.00,,CLR,0.00,VWS V14.01,2013-09-02 05:18:00,
2013-09-02 01:23:00,70.3,68.2,29.77,SSW,210,0.0,0.0,93,0.00,,CLR,0.00,VWS V14.01,2013-09-02 05:23:00,
2013-09-02 01:28:00,70.3,68.2,29.77,SSW,210,0.0,0.0,93,0.00,,CLR,0.00,VWS V14.01,2013-09-02 05:28:00,
2013-09-02 01:30:00,70.3,68.2,29.76,SSW,210,0.0,0.0,93,0.00,,BKN047,0.00,VWS V14.01,2013-09-02 05:30:00,
2013-09-02 01:33:00,70.3,68.2,29.76,SSW,210,0.0,3.0,93,0.00,,CLR,0.00,VWS V14.01,2013-09-02 05:33:00,
2013-09-02 01:38:00,70.3,68.2,29.76,SSW,210,0.0,3.0,93,0.00,,CLR,0.00,VWS V14.01,2013-09-02 05:38:00,
2013-09-02 01:43:00,70.3,68.2,29.76,SSW,210,0.0,0.0,93,0.00,,CLR,0.00,VWS V14.01,2013-09-02 05:43:00,
2013-09-02 01:45:00,70.3,68.2,29.76,SSW,210,0.0,0.0,93,0.00,,BKN047,0.00,VWS V14.01,2013-09-02 05:45:00,
2013-09-02 01:48:00,70.1,68.0,29.76,SSW,210,0.0,0.0,93,0.00,,CLR,0.00,VWS V14.01,2013-09-02 05:48:00,
2013-09-02 01:53:00,69.9,67.8,29.76,SSW,210,0.0,0.0,93,0.00,,CLR,0.00,VWS V14.01,2013-09-02 05:53:00,
2013-09-02 01:58:00,69.9,67.8,29.76,SSW,210,0.0,0.0,93,0.00,,CLR,0.00,VWS V14.01,2013-09-02 05:58:00,
2013-09-02 02:00:00,69.9,67.8,29.76,SSW,210,0.0,0.0,93,0.00,,BKN047,0.00,VWS V14.01,2013-09-02 06:00:00,
2013-09-02 02:03:00,69.9,67.8,29.76,SSW,210,0.0,0.0,93,0.00,,CLR,0.00,VWS V14.01,2013-09-02 06:03:00,
2013-09-02 02:08:00,70.1,68.0,29.76,SSW,210,0.0,0.0,93,0.00,,CLR,0.00,VWS V14.01,2013-09-02 06:08:00,
2013-09-02 02:13:00,70.3,68.2,29.76,SSW,210,0.0,0.0,93,0.00,,CLR,0.00,VWS V14.01,2013-09-02 06:13:00,
2013-09-02 02:15:00,70.3,68.2,29.75,SSW,210,0.0,0.0,93,0.00,,BKN047,0.00,VWS V14.01,2013-09-02 06:15:00,
2013-09-02 02:18:00,70.3,68.2,29.75,SSW,210,0.0,0.0,93,0.00,,CLR,0.00,VWS V14.01,2013-09-02 06:18:00,
2013-09-02 02:23:00,70.4,68.3,29.75,SSW,210,0.0,0.0,93,0.00,,CLR,0.00,VWS V14.01,2013-09-02 06:23:00,
2013-09-02 02:28:00,70.4,68.3,29.75,SSW,210,0.0,0.0,93,0.00,,CLR,0.00,VWS V14.01,2013-09-02 06:28:00,
2013-09-02 02:30:00,70.4,68.3,29.75,SSW,210,0.0,0.0,93,0.00,,BKN047,0.00,VWS V14.01,2013-09-02 06:30:00,
2013-09-02 02:33:00,70.4,68.3,29.75,SSW,210,0.0,0.0,93,0.00,,CLR,0.00,VWS V14.01,2013-09-02 06:33:00,
2013-09-02 02:38:00,70.3,68.2,29.75,SSW,210,0.0,0.0,93,0.00,,CLR,0.00,VWS V14.01,2013-09-02 06:38:00,
2013-09-02 02:43:00,70.4,68.6,29.75,SSW,210,0.0,0.0,94,0.00,,CLR,0.00,VWS V14.01,2013-09-02 06:43:00,
2013-09-02 02:45:00,70.4,68.6,29.75,SSW,210,0.0,0.0,94,0.00,,BKN047,0.00,VWS V14.01,2013-09-02 06:45:00,
2013-09-02 02:48:00,70.4,68.6,29.75,SSW,210,0.0,2.0,94,0.00,,CLR,0.00,VWS V14.01,2013-09-02 06:48:00,
2013-09-02 02:53:00,70.6,68.8,29.75,SSW,210,0.0,2.0,94,0.00,,CLR,0.00,VWS V14.01,2013-09-02 06:53:00,
2013-09-02 02:58:00,70.6,68.8,29.75,SSW,210,0.0,0.0,94,0.00,,CLR,0.00,VWS V14.01,2013-09-02 06:58:00,
2013-09-02 03:00:00,70.6,68.8,29.74,SSW,210,0.0,0.0,94,0.00,,BKN047,0.00,VWS V14.01,2013-09-02 07:00:00,
2013-09-02 03:03:00,70.8,69.0,29.74,SSW,210,0.0,0.0,94,0.00,,CLR,0.00,VWS V14.01,2013-09-02 07:03:00,
2013-09-02 03:08:00,70.9,69.1,29.74,SSW,210,0.0,1.0,94,0.00,,CLR,0.00,VWS V14.01,2013-09-02 07:08:00,
2013-09-02 03:13:00,70.9,69.1,29.74,SSW,210,0.0,0.0,94,0.00,,CLR,0.00,VWS V14.01,2013-09-02 07:13:00,
2013-09-02 03:15:00,70.8,69.0,29.74,SSW,210,0.0,0.0,94,0.00,,BKN047,0.00,VWS V14.01,2013-09-02 07:15:00,
2013-09-02 03:18:00,70.9,69.1,29.74,SSW,210,1.0,5.0,94,0.00,,CLR,0.00,VWS V14.01,2013-09-02 07:18:00,
2013-09-02 03:23:00,70.9,69.1,29.74,SSW,210,0.0,5.0,94,0.00,,CLR,0.00,VWS V14.01,2013-09-02 07:23:00,
2013-09-02 03:28:00,71.1,69.3,29.74,SSW,210,0.0,1.0,94,0.00,,CLR,0.00,VWS V14.01,2013-09-02 07:28:00,
2013-09-02 03:30:00,71.3,69.5,29.75,SSW,210,0.0,1.0,94,0.00,,BKN047,0.00,VWS V14.01,2013-09-02 07:30:00,
2013-09-02 03:33:00,71.3,69.5,29.75,SSW,210,0.0,0.0,94,0.00,,CLR,0.00,VWS V14.01,2013-09-02 07:33:00,
2013-09-02 03:38:00,71.3,69.5,29.75,SSW,210,0.0,0.0,94,0.00,,CLR,0.00,VWS V14.01,2013-09-02 07:38:00,
2013-09-02 03:43:00,71.3,69.5,29.75,SSW,210,0.0,1.0,94,0.00,,CLR,0.00,VWS V14.01,2013-09-02 07:43:00,
2013-09-02 03:45:00,71.3,69.5,29.75,SSW,210,0.0,1.0,94,0.00,,BKN047,0.00,VWS V14.01,2013-09-02 07:45:00,
2013-09-02 03:48:00,71.3,69.5,29.75,SSW,210,0.0,1.0,94,0.00,,CLR,0.00,VWS V14.01,2013-09-02 07:48:00,
2013-09-02 03:53:00,71.1,69.3,29.75,SSW,210,0.0,0.0,94,0.00,,CLR,0.00,VWS V14.01,2013-09-02 07:53:00,
2013-09-02 03:58:00,71.1,69.3,29.75,SSW,210,0.0,1.0,94,0.00,,CLR,0.00,VWS V14.01,2013-09-02 07:58:00,
2013-09-02 04:00:00,71.1,69.3,29.75,SSW,210,0.0,1.0,94,0.00,,BKN047,0.00,VWS V14.01,2013-09-02 08:00:00,
2013-09-02 04:03:00,71.1,69.3,29.75,SSW,210,0.0,1.0,94,0.00,,CLR,0.00,VWS V14.01,2013-09-02 08:03:00,
2013-09-02 04:08:00,71.1,69.3,29.75,SSW,210,0.0,0.0,94,0.00,,CLR,0.00,VWS V14.01,2013-09-02 08:08:00,
2013-09-02 04:13:00,71.1,69.3,29.75,SSW,210,0.0,0.0,94,0.00,,CLR,0.00,VWS V14.01,2013-09-02 08:13:00,
2013-09-02 04:15:00,71.1,69.3,29.75,SSW,210,0.0,0.0,94,0.00,,BKN047,0.00,VWS V14.01,2013-09-02 08:15:00,
2013-09-02 04:18:00,71.1,69.3,29.75,SSW,210,0.0,0.0,94,0.00,,CLR,0.00,VWS V14.01,2013-09-02 08:18:00,
2013-09-02 04:23:00,71.3,69.5,29.75,SSW,210,0.0,3.0,94,0.00,,CLR,0.00,VWS V14.01,2013-09-02 08:23:00,
2013-09-02 04:28:00,71.5,69.7,29.75,SSW,210,0.0,3.0,94,0.00,,CLR,0.00,VWS V14.01,2013-09-02 08:28:00,
2013-09-02 04:30:00,71.5,69.7,29.75,SSW,210,0.0,3.0,94,0.00,,BKN047,0.00,VWS V14.01,2013-09-02 08:30:00,
2013-09-02 04:33:00,71.5,69.7,29.75,SSW,210,0.0,3.0,94,0.00,,CLR,0.00,VWS V14.01,2013-09-02 08:33:00,
2013-09-02 04:38:00,71.5,69.7,29.75,SSW,210,0.0,0.0,94,0.00,,CLR,0.00,VWS V14.01,2013-09-02 08:38:00,
2013-09-02 04:43:00,71.5,69.7,29.75,SSW,210,0.0,0.0,94,0.00,,CLR,0.00,VWS V14.01,2013-09-02 08:43:00,
2013-09-02 04:45:00,71.3,69.5,29.75,SSW,210,0.0,0.0,94,0.00,,BKN047,0.00,VWS V14.01,2013-09-02 08:45:00,
2013-09-02 04:48:00,71.3,69.5,29.75,SSW,210,0.0,0.0,94,0.00,,CLR,0.00,VWS V14.01,2013-09-02 08:48:00,
2013-09-02 04:53:00,71.3,69.5,29.75,SSW,213,0.0,0.0,94,0.00,,CLR,0.00,VWS V14.01,2013-09-02 08:53:00,
2013-09-02 04:58:00,71.1,69.3,29.75,SSW,213,0.0,0.0,94,0.00,,CLR,0.00,VWS V14.01,2013-09-02 08:58:00,
2013-09-02 05:00:00,71.1,69.3,29.76,SSW,213,0.0,0.0,94,0.00,,BKN047,0.00,VWS V14.01,2013-09-02 09:00:00,
2013-09-02 05:03:00,71.3,69.5,29.76,SSW,213,0.0,0.0,94,0.00,,SCT028,0.00,VWS V14.01,2013-09-02 09:03:00,
2013-09-02 05:08:00,71.3,69.5,29.76,SSW,213,0.0,0.0,94,0.00,,SCT028,0.00,VWS V14.01,2013-09-02 09:08:00,
2013-09-02 05:13:00,71.3,69.5,29.76,SSW,213,0.0,0.0,94,0.00,,SCT028,0.00,VWS V14.01,2013-09-02 09:13:00,
2013-09-02 05:15:00,71.3,69.5,29.76,SSW,213,0.0,0.0,94,0.00,,BKN047,0.00,VWS V14.01,2013-09-02 09:15:00,
2013-09-02 05:18:00,71.3,69.5,29.76,SSW,213,0.0,0.0,94,0.00,,SCT028,0.00,VWS V14.01,2013-09-02 09:18:00,
2013-09-02 05:23:00,71.3,69.5,29.76,SSW,213,0.0,0.0,94,0.00,,SCT028,0.00,VWS V14.01,2013-09-02 09:23:00,
2013-09-02 05:28:00,71.3,69.5,29.76,SSW,213,0.0,0.0,94,0.00,,SCT028,0.00,VWS V14.01,2013-09-02 09:28:00,
2013-09-02 05:30:00,71.1,69.3,29.76,SSW,213,0.0,0.0,94,0.00,,BKN047,0.00,VWS V14.01,2013-09-02 09:30:00,
2013-09-02 05:33:00,71.3,69.5,29.76,SSW,213,0.0,0.0,94,0.00,,SCT028,0.00,VWS V14.01,2013-09-02 09:33:00,
2013-09-02 05:38:00,71.3,69.5,29.76,SW,223,0.0,2.0,94,0.00,,SCT028,0.00,VWS V14.01,2013-09-02 09:38:00,
2013-09-02 05:43:00,71.5,69.7,29.76,SW,229,0.0,3.0,94,0.00,,SCT028,0.00,VWS V14.01,2013-09-02 09:43:00,
2013-09-02 05:45:00,71.5,69.7,29.77,SW,229,0.0,3.0,94,0.00,,BKN047,0.00,VWS V14.01,2013-09-02 09:45:00,
2013-09-02 05:48:00,71.5,69.7,29.77,SW,229,0.0,3.0,94,0.00,,BKN060,0.00,VWS V14.01,2013-09-02 09:48:00,
2013-09-02 05:53:00,71.5,69.7,29.77,SW,229,0.0,3.0,94,0.00,,BKN060,0.00,VWS V14.01,2013-09-02 09:53:00,
2013-09-02 05:58:00,71.5,69.7,29.77,SW,229,0.0,3.0,94,0.00,,BKN060,0.00,VWS V14.01,2013-09-02 09:58:00,
2013-09-02 06:00:00,71.5,69.7,29.76,SW,229,0.0,3.0,94,0.00,,BKN047,0.00,VWS V14.01,2013-09-02 10:00:00,
2013-09-02 06:03:00,71.5,69.7,29.76,SW,229,0.0,0.0,94,0.00,,BKN060,0.00,VWS V14.01,2013-09-02 10:03:00,
2013-09-02 06:08:00,71.5,69.7,29.76,SW,232,0.0,4.0,94,0.00,,BKN060,0.00,VWS V14.01,2013-09-02 10:08:00,
2013-09-02 06:13:00,71.6,69.8,29.76,SW,232,0.0,4.0,94,0.00,,BKN060,0.00,VWS V14.01,2013-09-02 10:13:00,
2013-09-02 06:15:00,71.6,69.8,29.77,SW,232,0.0,3.0,94,0.00,,BKN047,0.00,VWS V14.01,2013-09-02 10:15:00,
2013-09-02 06:18:00,71.6,69.8,29.77,SW,223,2.0,3.0,94,0.00,,BKN028,0.00,VWS V14.01,2013-09-02 10:18:00,
2013-09-02 06:23:00,71.6,69.8,29.77,SW,223,0.0,3.0,94,0.00,,BKN028,0.00,VWS V14.01,2013-09-02 10:23:00,
2013-09-02 06:28:00,71.6,69.8,29.77,SW,223,0.0,1.0,94,0.00,,BKN028,0.00,VWS V14.01,2013-09-02 10:28:00,
2013-09-02 06:30:00,71.6,69.8,29.77,SW,223,0.0,1.0,94,0.00,,BKN047,0.00,VWS V14.01,2013-09-02 10:30:00,
2013-09-02 06:33:00,71.8,70.0,29.77,SW,223,0.0,0.0,94,0.00,,BKN028,0.00,VWS V14.01,2013-09-02 10:33:00,
2013-09-02 06:38:00,71.8,69.7,29.77,SW,223,0.0,3.0,93,0.00,,BKN028,0.00,VWS V14.01,2013-09-02 10:38:00,
2013-09-02 06:43:00,71.8,69.7,29.77,SW,223,3.0,3.0,93,0.00,,BKN028,0.00,VWS V14.01,2013-09-02 10:43:00,
2013-09-02 06:45:00,71.8,70.0,29.77,SW,226,0.0,5.0,94,0.00,,BKN047,0.00,VWS V14.01,2013-09-02 10:45:00,
2013-09-02 06:48:00,71.8,69.7,29.77,West,261,0.0,5.0,93,0.00,,BKN028,0.00,VWS V14.01,2013-09-02 10:48:00,
2013-09-02 06:53:00,71.8,69.7,29.77,WSW,243,1.0,3.0,93,0.00,,BKN028,0.00,VWS V14.01,2013-09-02 10:53:00,
2013-09-02 06:58:00,71.8,69.7,29.77,WSW,243,0.0,3.0,93,0.00,,BKN028,0.00,VWS V14.01,2013-09-02 10:58:00,
2013-09-02 07:00:00,71.8,69.7,29.77,WSW,243,0.0,3.0,93,0.00,,BKN047,0.00,VWS V14.01,2013-09-02 11:00:00,
2013-09-02 07:03:00,71.8,69.7,29.77,WSW,243,0.0,2.0,93,0.00,,OVC008,0.00,VWS V14.01,2013-09-02 11:03:00,
2013-09-02 07:08:00,71.8,69.7,29.77,WSW,243,0.0,2.0,93,0.00,,OVC008,0.00,VWS V14.01,2013-09-02 11:08:00,
2013-09-02 07:13:00,71.8,69.7,29.77,WSW,243,0.0,7.0,93,0.00,,OVC008,0.00,VWS V14.01,2013-09-02 11:13:00,
2013-09-02 07:15:00,71.8,69.7,29.78,WSW,243,0.0,7.0,93,0.00,,BKN047,0.00,VWS V14.01,2013-09-02 11:15:00,
2013-09-02 07:18:00,71.8,69.7,29.78,SW,229,4.0,7.0,93,0.00,,,0.00,VWS V14.01,2013-09-02 11:18:00,
2013-09-02 07:23:00,72.0,69.9,29.78,SW,232,0.0,7.0,93,0.00,,,0.00,VWS V14.01,2013-09-02 11:23:00,
2013-09-02 07:28:00,72.0,69.9,29.78,SW,234,0.0,5.0,93,0.00,,,0.00,VWS V14.01,2013-09-02 11:28:00,
2013-09-02 07:30:00,72.0,69.9,29.78,SW,234,0.0,5.0,93,0.00,,BKN047,0.00,VWS V14.01,2013-09-02 11:30:00,
2013-09-02 07:33:00,72.0,69.9,29.78,WSW,244,0.0,5.0,93,0.00,,,0.00,VWS V14.01,2013-09-02 11:33:00,
2013-09-02 07:38:00,72.0,69.9,29.78,WSW,244,3.0,5.0,93,0.00,,,0.00,VWS V14.01,2013-09-02 11:38:00,
2013-09-02 07:43:00,72.0,69.9,29.78,WSW,244,0.0,3.0,93,0.00,,,0.00,VWS V14.01,2013-09-02 11:43:00,
2013-09-02 07:45:00,72.0,69.9,29.78,WSW,244,0.0,3.0,93,0.00,,BKN047,0.00,VWS V14.01,2013-09-02 11:45:00,
2013-09-02 07:48:00,72.1,70.0,29.78,WSW,244,0.0,2.0,93,0.00,,,0.00,VWS V14.01,2013-09-02 11:48:00,
2013-09-02 07:53:00,72.1,70.0,29.78,WSW,243,0.0,5.0,93,0.00,,,0.00,VWS V14.01,2013-09-02 11:53:00,
2013-09-02 07:58:00,72.1,70.0,29.78,WSW,240,0.0,3.0,93,0.00,,,0.00,VWS V14.01,2013-09-02 11:58:00,
2013-09-02 08:00:00,72.1,70.0,29.78,WSW,241,0.0,2.0,93,0.00,,BKN047,0.00,VWS V14.01,2013-09-02 12:00:00,
2013-09-02 08:03:00,72.1,70.0,29.78,WSW,241,0.0,2.0,93,0.00,,,0.00,VWS V14.01,2013-09-02 12:03:00,
2013-09-02 08:08:00,72.1,70.0,29.78,WSW,240,0.0,0.0,93,0.00,,,0.00,VWS V14.01,2013-09-02 12:08:00,
2013-09-02 08:13:00,72.1,70.0,29.78,WSW,239,4.0,7.0,93,0.00,,,0.00,VWS V14.01,2013-09-02 12:13:00,
2013-09-02 08:15:00,72.1,70.0,29.78,SW,223,0.0,7.0,93,0.00,,BKN047,0.00,VWS V14.01,2013-09-02 12:15:00,
2013-09-02 08:18:00,72.1,70.0,29.78,SW,223,0.0,7.0,93,0.00,,,0.00,VWS V14.01,2013-09-02 12:18:00,
2013-09-02 08:23:00,72.3,70.2,29.78,SW,223,0.0,3.0,93,0.00,,,0.00,VWS V14.01,2013-09-02 12:23:00,
2013-09-02 08:28:00,72.3,70.2,29.78,SW,223,0.0,3.0,93,0.00,,,0.00,VWS V14.01,2013-09-02 12:28:00,
2013-09-02 08:30:00,72.3,70.2,29.79,SW,223,0.0,0.0,93,0.00,,BKN047,0.00,VWS V14.01,2013-09-02 12:30:00,
2013-09-02 08:33:00,72.3,70.2,29.79,SW,223,0.0,0.0,93,0.00,,,0.00,VWS V14.01,2013-09-02 12:33:00,
2013-09-02 08:38:00,72.5,70.4,29.79,SW,232,0.0,6.0,93,0.00,,,0.00,VWS V14.01,2013-09-02 12:38:00,
2013-09-02 08:43:00,72.5,70.4,29.79,SW,230,0.0,6.0,93,0.00,,,0.00,VWS V14.01,2013-09-02 12:43:00,
2013-09-02 08:45:00,72.5,70.4,29.79,SW,230,0.0,5.0,93,0.00,,BKN047,0.00,VWS V14.01,2013-09-02 12:45:00,
2013-09-02 08:48:00,72.5,70.4,29.79,SW,230,6.0,7.0,93,0.00,,,0.00,VWS V14.01,2013-09-02 12:48:00,
2013-09-02 08:53:00,72.5,70.4,29.79,SW,216,0.0,7.0,93,0.00,,,0.00,VWS V14.01,2013-09-02 12:53:00,
2013-09-02 08:58:00,72.5,70.4,29.79,SW,229,3.0,7.0,93,0.00,,,0.00,VWS V14.01,2013-09-02 12:58:00,
2013-09-02 09:00:00,72.3,70.2,29.79,WSW,241,5.0,7.0,93,0.00,,BKN047,0.00,VWS V14.01,2013-09-02 13:00:00,
2013-09-02 09:03:00,72.3,70.2,29.79,West,267,0.0,7.0,93,0.00,,,0.00,VWS V14.01,2013-09-02 13:03:00,
2013-09-02 09:08:00,72.3,70.2,29.79,West,261,0.0,6.0,93,0.00,,,0.00,VWS V14.01,2013-09-02 13:08:00,
2013-09-02 09:13:00,72.5,70.4,29.79,WSW,256,0.0,4.0,93,0.00,,,0.00,VWS V14.01,2013-09-02 13:13:00,
2013-09-02 09:15:00,72.5,70.4,29.80,WSW,247,0.0,6.0,93,0.00,,BKN047,0.00,VWS V14.01,2013-09-02 13:15:00,
2013-09-02 09:18:00,72.3,70.2,29.80,WSW,240,0.0,6.0,93,0.00,,,0.00,VWS V14.01,2013-09-02 13:18:00,
2013-09-02 09:23:00,72.5,70.4,29.80,WSW,258,0.0,6.0,93,0.00,,,0.00,VWS V14.01,2013-09-02 13:23:00,
2013-09-02 09:28:00,72.7,70.6,29.80,West,270,0.0,5.0,93,0.00,,,0.00,VWS V14.01,2013-09-02 13:28:00,
2013-09-02 09:30:00,72.7,70.6,29.80,West,270,0.0,5.0,93,0.00,,BKN047,0.00,VWS V14.01,2013-09-02 13:30:00,
2013-09-02 09:33:00,72.7,70.6,29.80,West,267,0.0,5.0,93,0.00,,,0.00,VWS V14.01,2013-09-02 13:33:00,
2013-09-02 09:38:00,73.0,70.9,29.80,West,263,0.0,4.0,93,0.00,,,0.00,VWS V14.01,2013-09-02 13:38:00,
2013-09-02 09:43:00,73.3,70.8,29.80,WSW,257,0.0,5.0,92,0.00,,,0.00,VWS V14.01,2013-09-02 13:43:00,
2013-09-02 09:45:00,73.3,70.8,29.81,WSW,256,0.0,5.0,92,0.00,,BKN047,0.00,VWS V14.01,2013-09-02 13:45:00,
2013-09-02 09:48:00,73.5,70.7,29.81,West,270,0.0,5.0,91,0.00,,,0.00,VWS V14.01,2013-09-02 13:48:00,
2013-09-02 09:53:00,73.7,70.6,29.81,WSW,247,0.0,6.0,90,0.00,,,0.00,VWS V14.01,2013-09-02 13:53:00,
2013-09-02 09:58:00,73.9,70.8,29.81,WSW,247,0.0,6.0,90,0.00,,,0.00,VWS V14.01,2013-09-02 13:58:00,
2013-09-02 10:00:00,74.0,70.6,29.81,WSW,248,0.0,6.0,89,0.00,,BKN047,0.00,VWS V14.01,2013-09-02 14:00:00,
2013-09-02 10:03:00,74.2,70.4,29.81,WNW,288,0.0,3.0,88,0.00,,,0.00,VWS V14.01,2013-09-02 14:03:00,
2013-09-02 10:08:00,74.6,70.5,29.81,West,272,0.0,5.0,87,0.00,,,0.00,VWS V14.01,2013-09-02 14:08:00,
2013-09-02 10:13:00,74.9,70.4,29.81,WNW,282,0.0,2.0,86,0.00,,,0.00,VWS V14.01,2013-09-02 14:13:00,
2013-09-02 10:15:00,75.1,70.6,29.81,WSW,253,0.0,3.0,86,0.00,,BKN047,0.00,VWS V14.01,2013-09-02 14:15:00,
2013-09-02 10:18:00,75.4,70.6,29.81,WSW,241,2.0,3.0,85,0.00,,,0.00,VWS V14.01,2013-09-02 14:18:00,
2013-09-02 10:23:00,75.6,70.1,29.81,WSW,246,0.0,7.0,83,0.00,,,0.00,VWS V14.01,2013-09-02 14:23:00,
2013-09-02 10:28:00,76.3,70.8,29.81,SW,216,0.0,7.0,83,0.00,,,0.00,VWS V14.01,2013-09-02 14:28:00,
2013-09-02 10:30:00,76.7,71.2,29.81,SW,216,0.0,7.0,83,0.00,,BKN047,0.00,VWS V14.01,2013-09-02 14:30:00,
2013-09-02 10:33:00,77.0,70.4,29.81,SW,217,0.0,6.0,80,0.00,,,0.00,VWS V14.01,2013-09-02 14:33:00,
2013-09-02 10:38:00,77.4,71.1,29.81,SW,224,0.0,7.0,81,0.00,,,0.00,VWS V14.01,2013-09-02 14:38:00,
2013-09-02 10:43:00,77.4,70.0,29.81,West,275,0.0,7.0,78,0.00,,,0.00,VWS V14.01,2013-09-02 14:43:00,
2013-09-02 10:45:00,77.4,70.0,29.81,West,275,0.0,4.0,78,0.00,,BKN047,0.00,VWS V14.01,2013-09-02 14:45:00,
2013-09-02 10:48:00,77.7,71.4,29.81,WSW,241,1.0,4.0,81,0.00,,,0.00,VWS V14.01,2013-09-02 14:48:00,
2013-09-02 10:53:00,77.6,69.8,29.81,WSW,239,0.0,8.0,77,0.00,,,0.00,VWS V14.01,2013-09-02 14:53:00,
2013-09-02 10:58:00,77.6,70.2,29.81,SW,222,0.0,8.0,78,0.00,,,0.00,VWS V14.01,2013-09-02 14:58:00,
2013-09-02 11:00:00,77.7,70.7,29.81,SW,222,0.0,7.0,79,0.00,,BKN047,0.00,VWS V14.01,2013-09-02 15:00:00,
2013-09-02 11:03:00,78.1,70.7,29.81,SSW,206,3.0,6.0,78,0.00,,BKN016,0.00,VWS V14.01,2013-09-02 15:03:00,
2013-09-02 11:08:00,78.8,69.8,29.81,SSW,198,3.0,7.0,74,0.00,,BKN016,0.00,VWS V14.01,2013-09-02 15:08:00,
2013-09-02 11:13:00,78.8,69.8,29.81,West,267,2.0,11.0,74,0.00,,BKN016,0.00,VWS V14.01,2013-09-02 15:13:00,
2013-09-02 11:15:00,79.0,70.0,29.81,West,271,0.0,11.0,74,0.00,,BKN047,0.00,VWS V14.01,2013-09-02 15:15:00,
2013-09-02 11:18:00,79.0,69.6,29.81,South,189,3.0,11.0,73,0.00,,BKN016,0.00,VWS V14.01,2013-09-02 15:18:00,
2013-09-02 11:23:00,79.4,69.6,29.81,WSW,243,0.0,11.0,72,0.00,,BKN016,0.00,VWS V14.01,2013-09-02 15:23:00,
2013-09-02 11:28:00,80.1,70.3,29.81,WSW,248,0.0,12.0,72,0.00,,BKN016,0.00,VWS V14.01,2013-09-02 15:28:00,
2013-09-02 11:30:00,80.3,70.5,29.81,SSW,210,9.0,12.0,72,0.00,,BKN047,0.00,VWS V14.01,2013-09-02 15:30:00,
2013-09-02 11:33:00,80.3,70.1,29.81,West,260,0.0,13.0,71,0.00,,BKN016,0.00,VWS V14.01,2013-09-02 15:33:00,
2013-09-02 11:38:00,80.3,70.1,29.81,WSW,240,6.0,10.0,71,0.00,,BKN016,0.00,VWS V14.01,2013-09-02 15:38:00,
2013-09-02 11:43:00,80.1,70.3,29.81,SW,222,0.0,11.0,72,0.00,,BKN016,0.00,VWS V14.01,2013-09-02 15:43:00,
2013-09-02 11:45:00,80.3,70.9,29.81,SSW,198,2.0,11.0,73,0.00,,BKN047,0.00,VWS V14.01,2013-09-02 15:45:00,
2013-09-02 11:48:00,80.7,69.6,29.81,West,263,0.0,6.0,69,0.00,,BKN016,0.00,VWS V14.01,2013-09-02 15:48:00,
2013-09-02 11:53:00,81.1,71.2,29.81,SW,224,0.0,6.0,72,0.00,,BKN016,0.00,VWS V14.01,2013-09-02 15:53:00,
2013-09-02 11:58:00,80.9,71.0,29.81,WSW,251,0.0,11.0,72,0.00,,BKN016,0.00,VWS V14.01,2013-09-02 15:58:00,
2013-09-02 12:00:00,80.9,70.6,29.81,WSW,251,0.0,11.0,71,0.00,,BKN047,0.00,VWS V14.01,2013-09-02 16:00:00,
2013-09-02 12:03:00,80.7,69.6,29.81,WSW,237,9.0,11.0,69,0.00,,BKN022,0.00,VWS V14.01,2013-09-02 16:03:00,
2013-09-02 12:08:00,80.7,70.0,29.81,West,261,3.0,11.0,70,0.00,,BKN022,0.00,VWS V14.01,2013-09-02 16:08:00,
2013-09-02 12:13:00,81.1,70.0,29.81,SW,217,7.0,12.0,69,0.00,,BKN022,0.00,VWS V14.01,2013-09-02 16:13:00,
2013-09-02 12:15:00,81.1,70.8,29.81,SW,215,0.0,12.0,71,0.00,,BKN047,0.00,VWS V14.01,2013-09-02 16:15:00,
2013-09-02 12:18:00,81.4,70.3,29.81,SSW,193,0.0,12.0,69,0.00,,BKN022,0.00,VWS V14.01,2013-09-02 16:18:00,
2013-09-02 12:23:00,81.8,70.2,29.81,West,261,0.0,11.0,68,0.00,,BKN022,0.00,VWS V14.01,2013-09-02 16:23:00,
2013-09-02 12:28:00,81.8,70.2,29.81,WSW,240,4.0,8.0,68,0.00,,BKN022,0.00,VWS V14.01,2013-09-02 16:28:00,
2013-09-02 12:30:00,82.0,70.4,29.80,WNW,298,1.0,8.0,68,0.00,,BKN047,0.00,VWS V14.01,2013-09-02 16:30:00,
2013-09-02 12:33:00,82.0,70.8,29.80,SW,230,0.0,10.0,69,0.00,,SCT022,0.00,VWS V14.01,2013-09-02 16:33:00,
2013-09-02 12:38:00,82.6,71.0,29.80,WSW,251,0.0,9.0,68,0.00,,SCT022,0.00,VWS V14.01,2013-09-02 16:38:00,
2013-09-02 12:43:00,83.0,71.8,29.80,West,277,4.0,10.0,69,0.00,,SCT022,0.00,VWS V14.01,2013-09-02 16:43:00,
2013-09-02 12:45:00,83.2,71.1,29.80,West,277,0.0,10.0,67,0.00,,BKN047,0.00,VWS V14.01,2013-09-02 16:45:00,
2013-09-02 12:48:00,83.6,71.5,29.80,South,184,0.0,8.0,67,0.00,,SCT022,0.00,VWS V14.01,2013-09-02 16:48:00,
2013-09-02 12:53:00,83.8,71.2,29.80,WSW,250,1.0,11.0,66,0.00,,SCT022,0.00,VWS V14.01,2013-09-02 16:53:00,
2013-09-02 12:58:00,83.4,70.9,29.80,WSW,248,0.0,11.0,66,0.00,,SCT022,0.00,VWS V14.01,2013-09-02 16:58:00,
2013-09-02 13:00:00,83.4,71.7,29.80,SW,222,3.0,11.0,68,0.00,,BKN047,0.00,VWS V14.01,2013-09-02 17:00:00,
2013-09-02 13:03:00,83.4,71.7,29.80,West,275,0.0,12.0,68,0.00,,SCT035,0.00,VWS V14.01,2013-09-02 17:03:00,
2013-09-02 13:08:00,83.6,71.5,29.80,WSW,240,5.0,13.0,67,0.00,,SCT035,0.00,VWS V14.01,2013-09-02 17:08:00,
2013-09-02 13:13:00,83.6,71.5,29.80,SSW,192,6.0,13.0,67,0.00,,SCT035,0.00,VWS V14.01,2013-09-02 17:13:00,
2013-09-02 13:15:00,83.8,72.1,29.80,WSW,247,2.0,10.0,68,0.00,,BKN047,0.00,VWS V14.01,2013-09-02 17:15:00,
2013-09-02 13:18:00,83.8,71.2,29.80,South,188,5.0,10.0,66,0.00,,SCT035,0.00,VWS V14.01,2013-09-02 17:18:00,
2013-09-02 13:23:00,83.4,70.9,29.80,WSW,253,0.0,14.0,66,0.00,,SCT035,0.00,VWS V14.01,2013-09-02 17:23:00,
2013-09-02 13:28:00,83.2,71.6,29.80,SW,215,0.0,13.0,68,0.00,,SCT035,0.00,VWS V14.01,2013-09-02 17:28:00,
2013-09-02 13:30:00,83.2,71.6,29.80,West,261,6.0,8.0,68,0.00,,BKN047,0.00,VWS V14.01,2013-09-02 17:30:00,
2013-09-02 13:33:00,83.8,71.7,29.80,WSW,240,0.0,7.0,67,0.00,,SCT035,0.00,VWS V14.01,2013-09-02 17:33:00,
2013-09-02 13:38:00,84.7,72.1,29.80,WSW,240,0.0,6.0,66,0.00,,SCT035,0.00,VWS V14.01,2013-09-02 17:38:00,
2013-09-02 13:43:00,85.1,71.1,29.80,SW,233,5.0,12.0,63,0.00,,SCT035,0.00,VWS V14.01,2013-09-02 17:43:00,
2013-09-02 13:45:00,85.1,71.6,29.79,South,186,0.0,12.0,64,0.00,,BKN047,0.00,VWS V14.01,2013-09-02 17:45:00,
2013-09-02 13:48:00,85.3,72.2,29.79,SSW,206,0.0,12.0,65,0.00,,SCT035,0.00,VWS V14.01,2013-09-02 17:48:00,
2013-09-02 13:53:00,85.9,72.3,29.79,SSW,208,6.0,8.0,64,0.00,,SCT035,0.00,VWS V14.01,2013-09-02 17:53:00,
2013-09-02 13:58:00,86.1,72.0,29.79,West,265,2.0,7.0,63,0.00,,SCT035,0.00,VWS V14.01,2013-09-02 17:58:00,
2013-09-02 14:00:00,86.1,72.0,29.78,WSW,244,0.0,7.0,63,0.00,,BKN047,0.00,VWS V14.01,2013-09-02 18:00:00,
2013-09-02 14:03:00,86.1,71.6,29.78,SW,227,0.0,7.0,62,0.00,,SCT047,0.00,VWS V14.01,2013-09-02 18:03:00,
2013-09-02 14:08:00,86.1,71.1,29.78,WSW,250,0.0,11.0,61,0.00,,SCT047,0.00,VWS V14.01,2013-09-02 18:08:00,
2013-09-02 14:13:00,86.3,71.8,29.78,SW,224,5.0,11.0,62,0.00,,SCT047,0.00,VWS V14.01,2013-09-02 18:13:00,
2013-09-02 14:15:00,86.3,71.3,29.77,SSW,205,0.0,10.0,61,0.00,,BKN047,0.00,VWS V14.01,2013-09-02 18:15:00,
2013-09-02 14:18:00,86.5,72.4,29.77,SW,226,1.0,12.0,63,0.00,,SCT047,0.00,VWS V14.01,2013-09-02 18:18:00,
2013-09-02 14:23:00,87.4,73.3,29.77,SSW,208,1.0,12.0,63,0.00,,SCT047,0.00,VWS V14.01,2013-09-02 18:23:00,
2013-09-02 14:28:00,87.6,72.0,29.77,WSW,239,0.0,11.0,60,0.00,,SCT047,0.00,VWS V14.01,2013-09-02 18:28:00,
2013-09-02 14:30:00,87.4,71.8,29.76,WSW,251,3.0,11.0,60,0.00,,BKN047,0.00,VWS V14.01,2013-09-02 18:30:00,
2013-09-02 14:33:00,86.5,71.5,29.76,SW,217,0.0,10.0,61,0.00,,SCT047,0.00,VWS V14.01,2013-09-02 18:33:00,
2013-09-02 14:38:00,85.3,71.8,29.76,SW,223,0.0,8.0,64,0.00,,SCT047,0.00,VWS V14.01,2013-09-02 18:38:00,
2013-09-02 14:43:00,84.5,71.4,29.76,SW,216,0.0,5.0,65,0.00,,SCT047,0.00,VWS V14.01,2013-09-02 18:43:00,
2013-09-02 14:45:00,84.5,71.9,29.76,SW,216,0.0,5.0,66,0.00,,BKN047,0.00,VWS V14.01,2013-09-02 18:45:00,
2013-09-02 14:48:00,84.3,72.2,29.76,SW,223,0.0,3.0,67,0.00,,-RA,0.00,VWS V14.01,2013-09-02 18:48:00,
2013-09-02 14:53:00,84.0,72.7,29.76,NNW,336,0.0,5.0,69,0.00,,-RA,0.00,VWS V14.01,2013-09-02 18:53:00,
2013-09-02 14:58:00,81.6,71.7,29.76,NW,304,0.0,12.0,72,0.00,,-RA,0.00,VWS V14.01,2013-09-02 18:58:00,
2013-09-02 15:00:00,81.1,71.6,29.78,North,357,5.0,12.0,73,0.01,,BKN047,0.01,VWS V14.01,2013-09-02 19:00:00,
2013-09-02 15:03:00,79.4,72.3,29.78,NNW,333,0.0,11.0,79,0.02,,BKN050,0.02,VWS V14.01,2013-09-02 19:03:00,
2013-09-02 15:08:00,78.6,73.0,29.78,NNW,337,0.0,2.0,83,0.02,,BKN050,0.02,VWS V14.01,2013-09-02 19:08:00,
2013-09-02 15:13:00,78.1,72.5,29.78,NNW,337,0.0,0.0,83,0.02,,BKN050,0.02,VWS V14.01,2013-09-02 19:13:00,
2013-09-02 15:15:00,78.1,72.9,29.78,NNW,347,0.0,0.0,84,0.02,,BKN047,0.02,VWS V14.01,2013-09-02 19:15:00,
2013-09-02 15:18:00,77.6,72.4,29.78,NNE,28,0.0,6.0,84,0.02,,,0.02,VWS V14.01,2013-09-02 19:18:00,
2013-09-02 15:23:00,77.4,72.2,29.78,NNE,27,0.0,6.0,84,0.02,,,0.02,VWS V14.01,2013-09-02 19:23:00,
2013-09-02 15:28:00,77.4,72.5,29.78,NNE,27,0.0,0.0,85,0.02,,,0.02,VWS V14.01,2013-09-02 19:28:00,
2013-09-02 15:30:00,77.4,72.5,29.76,NNE,27,0.0,0.0,85,0.02,,BKN047,0.02,VWS V14.01,2013-09-02 19:30:00,
2013-09-02 15:33:00,77.6,72.4,29.76,North,11,0.0,0.0,84,0.02,,,0.02,VWS V14.01,2013-09-02 19:33:00,
2013-09-02 15:38:00,77.7,72.8,29.76,North,11,0.0,0.0,85,0.02,,,0.02,VWS V14.01,2013-09-02 19:38:00,
2013-09-02 15:43:00,78.3,73.1,29.76,North,11,0.0,0.0,84,0.02,,,0.02,VWS V14.01,2013-09-02 19:43:00,
2013-09-02 15:45:00,78.5,73.3,29.77,North,11,0.0,0.0,84,0.02,,BKN047,0.02,VWS V14.01,2013-09-02 19:45:00,
2013-09-02 15:48:00,79.2,72.9,29.77,North,11,0.0,0.0,81,0.02,,,0.02,VWS V14.01,2013-09-02 19:48:00,
2013-09-02 15:53:00,79.8,72.7,29.77,NNW,329,0.0,6.0,79,0.02,,,0.02,VWS V14.01,2013-09-02 19:53:00,
2013-09-02 15:58:00,80.5,71.8,29.77,NW,319,0.0,11.0,75,0.02,,,0.02,VWS V14.01,2013-09-02 19:58:00,
2013-09-02 16:00:00,80.7,71.7,29.75,NW,320,6.0,11.0,74,0.02,,BKN047,0.02,VWS V14.01,2013-09-02 20:00:00,
2013-09-02 16:03:00,81.6,70.9,29.75,NNW,337,2.0,10.0,70,0.01,,FEW033,0.02,VWS V14.01,2013-09-02 20:03:00,
2013-09-02 16:08:00,82.0,71.3,29.75,North,0,6.0,8.0,70,0.01,,FEW033,0.02,VWS V14.01,2013-09-02 20:08:00,
2013-09-02 16:13:00,82.2,71.9,29.75,NNW,347,0.0,8.0,71,0.01,,FEW033,0.02,VWS V14.01,2013-09-02 20:13:00,
2013-09-02 16:15:00,82.4,72.9,29.75,NNW,347,3.0,8.0,73,0.01,,BKN047,0.02,VWS V14.01,2013-09-02 20:15:00,
2013-09-02 16:18:00,83.0,71.8,29.75,NNW,343,4.0,8.0,69,0.00,,FEW033,0.02,VWS V14.01,2013-09-02 20:18:00,
2013-09-02 16:23:00,83.2,70.7,29.75,North,6,0.0,10.0,66,0.00,,FEW033,0.02,VWS V14.01,2013-09-02 20:23:00,
2013-09-02 16:28:00,83.0,70.9,29.75,NW,316,0.0,8.0,67,0.00,,FEW033,0.02,VWS V14.01,2013-09-02 20:28:00,
2013-09-02 16:30:00,83.0,70.9,29.75,WNW,296,0.0,8.0,67,0.00,,BKN047,0.02,VWS V14.01,2013-09-02 20:30:00,
2013-09-02 16:33:00,83.0,70.5,29.75,West,275,0.0,6.0,66,0.00,,FEW033,0.02,VWS V14.01,2013-09-02 20:33:00,
2013-09-02 16:38:00,83.4,71.3,29.75,SW,215,0.0,6.0,67,0.00,,FEW033,0.02,VWS V14.01,2013-09-02 20:38:00,
2013-09-02 16:43:00,83.6,70.1,29.75,North,353,0.0,12.0,64,0.00,,FEW033,0.02,VWS V14.01,2013-09-02 20:43:00,
2013-09-02 16:45:00,83.4,70.0,29.75,NNW,337,0.0,12.0,64,0.00,,BKN047,0.02,VWS V14.01,2013-09-02 20:45:00,
2013-09-02 16:48:00,83.6,70.1,29.75,SW,217,5.0,12.0,64,0.00,,FEW033,0.02,VWS V14.01,2013-09-02 20:48:00,
2013-09-02 16:53:00,84.0,70.1,29.75,WSW,237,0.0,6.0,63,0.00,,FEW033,0.02,VWS V14.01,2013-09-02 20:53:00,
2013-09-02 16:58:00,84.3,69.9,29.75,NNW,337,0.0,10.0,62,0.00,,FEW033,0.02,VWS V14.01,2013-09-02 20:58:00,
2013-09-02 17:00:00,84.5,71.0,29.75,WSW,239,2.0,10.0,64,0.00,,BKN047,0.02,VWS V14.01,2013-09-02 21:00:00,
2013-09-02 17:03:00,84.7,69.8,29.75,NW,322,0.0,10.0,61,0.00,,FEW037,0.02,VWS V14.01,2013-09-02 21:03:00,
2013-09-02 17:08:00,84.7,69.8,29.75,NNW,336,0.0,10.0,61,0.00,,FEW037,0.02,VWS V14.01,2013-09-02 21:08:00,
2013-09-02 17:13:00,84.7,69.8,29.75,NNW,332,0.0,9.0,61,0.00,,FEW037,0.02,VWS V14.01,2013-09-02 21:13:00,
2013-09-02 17:15:00,84.7,69.3,29.75,WSW,241,0.0,9.0,60,0.00,,BKN047,0.02,VWS V14.01,2013-09-02 21:15:00,
2013-09-02 17:18:00,84.7,69.8,29.75,WSW,251,7.0,9.0,61,0.00,,FEW037,0.02,VWS V14.01,2013-09-02 21:18:00,
2013-09-02 17:23:00,84.5,69.6,29.75,WNW,288,0.0,9.0,61,0.00,,FEW037,0.02,VWS V14.01,2013-09-02 21:23:00,
2013-09-02 17:28:00,84.7,69.8,29.75,West,280,0.0,6.0,61,0.00,,FEW037,0.02,VWS V14.01,2013-09-02 21:28:00,
2013-09-02 17:30:00,84.7,69.3,29.75,WNW,292,0.0,6.0,60,0.00,,BKN047,0.02,VWS V14.01,2013-09-02 21:30:00,
2013-09-02 17:33:00,84.7,68.8,29.75,SSW,213,0.0,7.0,59,0.00,,FEW037,0.02,VWS V14.01,2013-09-02 21:33:00,
2013-09-02 17:38:00,84.5,69.1,29.75,West,272,0.0,7.0,60,0.00,,FEW037,0.02,VWS V14.01,2013-09-02 21:38:00,
2013-09-02 17:43:00,84.0,69.1,29.75,West,267,0.0,5.0,61,0.00,,FEW037,0.02,VWS V14.01,2013-09-02 21:43:00,
2013-09-02 17:45:00,83.8,68.9,29.75,West,261,0.0,5.0,61,0.00,,BKN047,0.02,VWS V14.01,2013-09-02 21:45:00,
2013-09-02 17:48:00,83.4,69.0,29.75,NW,325,0.0,6.0,62,0.00,,FEW037,0.02,VWS V14.01,2013-09-02 21:48:00,
2013-09-02 17:53:00,83.4,69.9,29.75,North,356,0.0,6.0,64,0.00,,FEW037,0.02,VWS V14.01,2013-09-02 21:53:00,
2013-09-02 17:58:00,83.0,69.6,29.75,North,353,0.0,5.0,64,0.00,,FEW037,0.02,VWS V14.01,2013-09-02 21:58:00,
2013-09-02 18:00:00,82.8,69.4,29.75,WNW,298,0.0,5.0,64,0.00,,BKN047,0.02,VWS V14.01,2013-09-02 22:00:00,
2013-09-02 18:03:00,82.6,69.7,29.75,NW,304,0.0,5.0,65,0.00,,SCT039,0.02,VWS V14.01,2013-09-02 22:03:00,
2013-09-02 18:08:00,82.4,69.9,29.75,NW,325,0.0,1.0,66,0.00,,SCT039,0.02,VWS V14.01,2013-09-02 22:08:00,
2013-09-02 18:13:00,82.0,70.0,29.75,NNW,335,0.0,6.0,67,0.00,,SCT039,0.02,VWS V14.01,2013-09-02 22:13:00,
2013-09-02 18:15:00,82.0,70.0,29.76,NNE,16,0.0,6.0,67,0.00,,BKN047,0.02,VWS V14.01,2013-09-02 22:15:00,
2013-09-02 18:18:00,81.8,70.2,29.76,North,354,0.0,6.0,68,0.00,,SCT039,0.02,VWS V14.01,2013-09-02 22:18:00,
2013-09-02 18:23:00,81.1,69.6,29.76,North,8,3.0,8.0,68,0.00,,SCT039,0.02,VWS V14.01,2013-09-02 22:23:00,
2013-09-02 18:28:00,80.5,69.4,29.76,North,350,3.0,8.0,69,0.00,,SCT039,0.02,VWS V14.01,2013-09-02 22:28:00,
2013-09-02 18:30:00,80.5,69.4,29.76,NNW,330,2.0,8.0,69,0.00,,BKN047,0.02,VWS V14.01,2013-09-02 22:30:00,
2013-09-02 18:33:00,80.1,69.4,29.76,NNW,339,0.0,8.0,70,0.00,,SCT039,0.02,VWS V14.01,2013-09-02 22:33:00,
2013-09-02 18:38:00,79.9,69.7,29.76,NNW,344,0.0,7.0,71,0.00,,SCT039,0.02,VWS V14.01,2013-09-02 22:38:00,
2013-09-02 18:43:00,79.8,70.0,29.76,NNE,30,0.0,8.0,72,0.00,,SCT039,0.02,VWS V14.01,2013-09-02 22:43:00,
2013-09-02 18:45:00,79.6,69.8,29.76,NNW,330,5.0,8.0,72,0.00,,BKN047,0.02,VWS V14.01,2013-09-02 22:45:00,
2013-09-02 18:48:00,79.6,69.4,29.76,NNW,342,5.0,7.0,71,0.00,,SCT039,0.02,VWS V14.01,2013-09-02 22:48:00,
2013-09-02 18:53:00,79.2,69.0,29.76,North,353,0.0,7.0,71,0.00,,SCT039,0.02,VWS V14.01,2013-09-02 22:53:00,
2013-09-02 18:58:00,78.8,68.6,29.76,North,0,2.0,7.0,71,0.00,,SCT039,0.02,VWS V14.01,2013-09-02 22:58:00,
2013-09-02 19:00:00,78.6,68.4,29.77,North,0,0.0,7.0,71,0.00,,BKN047,0.02,VWS V14.01,2013-09-02 23:00:00,
2013-09-02 19:03:00,78.5,68.3,29.77,North,352,2.0,7.0,71,0.00,,CLR,0.02,VWS V14.01,2013-09-02 23:03:00,
2013-09-02 19:08:00,78.3,68.5,29.77,North,349,0.0,6.0,72,0.00,,CLR,0.02,VWS V14.01,2013-09-02 23:08:00,
2013-09-02 19:13:00,78.1,68.8,29.77,North,349,0.0,5.0,73,0.00,,CLR,0.02,VWS V14.01,2013-09-02 23:13:00,
2013-09-02 19:15:00,78.1,68.8,29.77,North,349,0.0,5.0,73,0.00,,BKN047,0.02,VWS V14.01,2013-09-02 23:15:00,
2013-09-02 19:18:00,77.9,68.6,29.77,NNE,14,0.0,7.0,73,0.00,,CLR,0.02,VWS V14.01,2013-09-02 23:18:00,
2013-09-02 19:23:00,77.7,68.8,29.77,North,0,0.0,7.0,74,0.00,,CLR,0.02,VWS V14.01,2013-09-02 23:23:00,
2013-09-02 19:28:00,77.6,68.7,29.77,North,0,0.0,2.0,74,0.00,,CLR,0.02,VWS V14.01,2013-09-02 23:28:00,
2013-09-02 19:30:00,77.4,68.5,29.77,NNW,332,5.0,5.0,74,0.00,,BKN047,0.02,VWS V14.01,2013-09-02 23:30:00,
2013-09-02 19:33:00,77.2,68.3,29.77,North,349,5.0,6.0,74,0.00,,CLR,0.02,VWS V14.01,2013-09-02 23:33:00,
2013-09-02 19:38:00,77.0,68.1,29.77,NNE,14,0.0,6.0,74,0.00,,CLR,0.02,VWS V14.01,2013-09-02 23:38:00,
2013-09-02 19:43:00,76.8,67.9,29.77,North,356,0.0,5.0,74,0.00,,CLR,0.02,VWS V14.01,2013-09-02 23:43:00,
2013-09-02 19:45:00,76.8,67.9,29.78,North,356,0.0,5.0,74,0.00,,BKN047,0.02,VWS V14.01,2013-09-02 23:45:00,
2013-09-02 19:48:00,76.7,67.8,29.78,North,11,3.0,5.0,74,0.00,,CLR,0.02,VWS V14.01,2013-09-02 23:48:00,
2013-09-02 19:53:00,76.5,68.0,29.78,North,349,0.0,5.0,75,0.00,,CLR,0.02,VWS V14.01,2013-09-02 23:53:00,
2013-09-02 19:58:00,76.1,67.6,29.78,NNE,13,0.0,6.0,75,0.00,,CLR,0.02,VWS V14.01,2013-09-02 23:58:00,
2013-09-02 20:00:00,76.0,67.5,29.78,NNE,13,0.0,6.0,75,0.00,,BKN047,0.02,VWS V14.01,2013-09-03 00:00:00,
2013-09-02 20:03:00,75.8,67.7,29.78,NNE,13,0.0,6.0,76,0.00,,FEW041,0.02,VWS V14.01,2013-09-03 00:03:00,
2013-09-02 20:08:00,75.4,67.3,29.78,NNE,13,0.0,0.0,76,0.00,,FEW041,0.02,VWS V14.01,2013-09-03 00:08:00,
2013-09-02 20:13:00,75.1,67.4,29.78,NNE,13,0.0,0.0,77,0.00,,FEW041,0.02,VWS V14.01,2013-09-03 00:13:00,
2013-09-02 20:15:00,75.1,67.4,29.80,NNE,13,0.0,0.0,77,0.00,,BKN047,0.02,VWS V14.01,2013-09-03 00:15:00,
2013-09-02 20:18:00,74.9,67.6,29.80,NNE,13,0.0,0.0,78,0.00,,FEW041,0.02,VWS V14.01,2013-09-03 00:18:00,
2013-09-02 20:23:00,74.6,67.3,29.80,NNE,13,0.0,0.0,78,0.00,,FEW041,0.02,VWS V14.01,2013-09-03 00:23:00,
2013-09-02 20:28:00,74.2,67.3,29.80,NNE,13,0.0,0.0,79,0.00,,FEW041,0.02,VWS V14.01,2013-09-03 00:28:00,
2013-09-02 20:30:00,74.2,67.3,29.80,NNE,13,0.0,0.0,79,0.00,,BKN047,0.02,VWS V14.01,2013-09-03 00:30:00,
2013-09-02 20:33:00,73.9,67.3,29.80,NNE,13,0.0,0.0,80,0.00,,FEW041,0.02,VWS V14.01,2013-09-03 00:33:00,
2013-09-02 20:38:00,73.7,67.5,29.80,NNE,13,0.0,0.0,81,0.00,,FEW041,0.02,VWS V14.01,2013-09-03 00:38:00,
2013-09-02 20:43:00,73.3,67.1,29.80,NNE,13,0.0,0.0,81,0.00,,FEW041,0.02,VWS V14.01,2013-09-03 00:43:00,
2013-09-02 20:45:00,73.3,67.1,29.80,NNE,13,0.0,0.0,81,0.00,,BKN047,0.02,VWS V14.01,2013-09-03 00:45:00,
2013-09-02 20:48:00,73.2,67.4,29.80,NNE,13,0.0,0.0,82,0.00,,FEW041,0.02,VWS V14.01,2013-09-03 00:48:00,
2013-09-02 20:53:00,72.8,67.0,29.80,NNE,13,0.0,0.0,82,0.00,,FEW041,0.02,VWS V14.01,2013-09-03 00:53:00,
2013-09-02 20:58:00,72.7,66.9,29.80,NNE,13,0.0,0.0,82,0.00,,FEW041,0.02,VWS V14.01,2013-09-03 00:58:00,
2013-09-02 21:00:00,72.5,67.1,29.80,NNE,13,0.0,0.0,83,0.00,,BKN047,0.02,VWS V14.01,2013-09-03 01:00:00,
2013-09-02 21:03:00,72.3,66.8,29.80,NNE,13,0.0,0.0,83,0.00,,CLR,0.02,VWS V14.01,2013-09-03 01:03:00,
2013-09-02 21:08:00,72.1,66.7,29.80,NNE,13,0.0,0.0,83,0.00,,CLR,0.02,VWS V14.01,2013-09-03 01:08:00,
2013-09-02 21:13:00,72.0,66.6,29.80,NNE,13,0.0,1.0,83,0.00,,CLR,0.02,VWS V14.01,2013-09-03 01:13:00,
2013-09-02 21:15:00,72.0,66.6,29.81,NNE,13,0.0,1.0,83,0.00,,BKN047,0.02,VWS V14.01,2013-09-03 01:15:00,
2013-09-02 21:18:00,72.0,66.6,29.81,NNE,13,0.0,0.0,83,0.00,,CLR,0.02,VWS V14.01,2013-09-03 01:18:00,
2013-09-02 21:23:00,71.8,66.7,29.81,NNE,13,0.0,0.0,84,0.00,,CLR,0.02,VWS V14.01,2013-09-03 01:23:00,
2013-09-02 21:28:00,71.6,66.9,29.81,NNE,13,0.0,0.0,85,0.00,,CLR,0.02,VWS V14.01,2013-09-03 01:28:00,
2013-09-02 21:30:00,71.5,66.8,29.81,NNE,13,0.0,0.0,85,0.00,,BKN047,0.02,VWS V14.01,2013-09-03 01:30:00,
2013-09-02 21:33:00,71.3,66.6,29.81,NNE,13,0.0,0.0,85,0.00,,CLR,0.02,VWS V14.01,2013-09-03 01:33:00,
2013-09-02 21:38:00,70.9,66.5,29.81,NNE,13,0.0,0.0,86,0.00,,CLR,0.02,VWS V14.01,2013-09-03 01:38:00,
2013-09-02 21:43:00,70.8,66.4,29.81,NNE,13,0.0,0.0,86,0.00,,CLR,0.02,VWS V14.01,2013-09-03 01:43:00,
2013-09-02 21:45:00,70.6,66.2,29.82,NNE,13,0.0,0.0,86,0.00,,BKN047,0.02,VWS V14.01,2013-09-03 01:45:00,
2013-09-02 21:48:00,70.4,66.3,29.82,NNE,13,0.0,0.0,87,0.00,,CLR,0.02,VWS V14.01,2013-09-03 01:48:00,
2013-09-02 21:53:00,70.3,66.2,29.82,NNE,13,0.0,0.0,87,0.00,,CLR,0.02,VWS V14.01,2013-09-03 01:53:00,
2013-09-02 21:58:00,69.9,65.9,29.82,NNE,13,0.0,0.0,87,0.00,,CLR,0.02,VWS V14.01,2013-09-03 01:58:00,
2013-09-02 22:00:00,69.9,65.9,29.82,NNE,13,0.0,0.0,87,0.00,,BKN047,0.02,VWS V14.01,2013-09-03 02:00:00,
2013-09-02 22:03:00,69.8,65.8,29.82,NNE,13,0.0,0.0,87,0.00,,CLR,0.02,VWS V14.01,2013-09-03 02:03:00,
2013-09-02 22:08:00,69.6,65.9,29.82,NNE,13,0.0,0.0,88,0.00,,CLR,0.02,VWS V14.01,2013-09-03 02:08:00,
2013-09-02 22:13:00,69.3,65.6,29.82,NNE,13,0.0,0.0,88,0.00,,CLR,0.02,VWS V14.01,2013-09-03 02:13:00,
2013-09-02 22:15:00,69.3,65.6,29.83,NNE,13,0.0,0.0,88,0.00,,BKN047,0.02,VWS V14.01,2013-09-03 02:15:00,
2013-09-02 22:18:00,69.1,65.4,29.83,NNE,13,0.0,0.0,88,0.00,,CLR,0.02,VWS V14.01,2013-09-03 02:18:00,
2013-09-02 22:23:00,68.8,65.1,29.83,NNE,13,0.0,0.0,88,0.00,,CLR,0.02,VWS V14.01,2013-09-03 02:23:00,
2013-09-02 22:28:00,68.6,65.2,29.83,NNE,13,0.0,0.0,89,0.00,,CLR,0.02,VWS V14.01,2013-09-03 02:28:00,
2013-09-02 22:30:00,68.6,65.2,29.83,NNE,13,0.0,0.0,89,0.00,,BKN047,0.02,VWS V14.01,2013-09-03 02:30:00,
2013-09-02 22:33:00,68.4,65.0,29.83,NNE,13,0.0,0.0,89,0.00,,CLR,0.02,VWS V14.01,2013-09-03 02:33:00,
2013-09-02 22:38:00,68.1,64.7,29.83,NNE,13,0.0,0.0,89,0.00,,CLR,0.02,VWS V14.01,2013-09-03 02:38:00,
2013-09-02 22:43:00,67.9,64.9,29.83,NNE,13,0.0,0.0,90,0.00,,CLR,0.02,VWS V14.01,2013-09-03 02:43:00,
2013-09-02 22:45:00,67.8,64.8,29.83,NNE,13,0.0,0.0,90,0.00,,BKN047,0.02,VWS V14.01,2013-09-03 02:45:00,
2013-09-02 22:48:00,67.6,64.6,29.83,NNE,13,0.0,0.0,90,0.00,,CLR,0.02,VWS V14.01,2013-09-03 02:48:00,
2013-09-02 22:53:00,67.4,64.4,29.83,NNE,13,0.0,0.0,90,0.00,,CLR,0.02,VWS V14.01,2013-09-03 02:53:00,
2013-09-02 22:58:00,67.3,64.3,29.83,NNE,13,0.0,0.0,90,0.00,,CLR,0.02,VWS V14.01,2013-09-03 02:58:00,
2013-09-02 23:00:00,67.3,64.3,29.83,NNE,13,0.0,0.0,90,0.00,,BKN047,0.02,VWS V14.01,2013-09-03 03:00:00,
2013-09-02 23:03:00,67.3,64.6,29.83,NNE,13,0.0,0.0,91,0.00,,,0.02,VWS V14.01,2013-09-03 03:03:00,
2013-09-02 23:08:00,67.1,64.4,29.83,NNE,13,0.0,0.0,91,0.00,,,0.02,VWS V14.01,2013-09-03 03:08:00,
2013-09-02 23:13:00,66.9,64.2,29.83,NNE,13,0.0,2.0,91,0.00,,,0.02,VWS V14.01,2013-09-03 03:13:00,
2013-09-02 23:15:00,66.9,64.2,29.84,NNE,13,0.0,2.0,91,0.00,,BKN047,0.02,VWS V14.01,2013-09-03 03:15:00,
2013-09-02 23:18:00,67.1,64.1,29.84,North,357,0.0,3.0,90,0.00,,,0.02,VWS V14.01,2013-09-03 03:18:00,
2013-09-02 23:23:00,67.3,64.0,29.84,North,357,0.0,3.0,89,0.00,,,0.02,VWS V14.01,2013-09-03 03:23:00,
2013-09-02 23:28:00,67.4,63.4,29.84,North,359,0.0,3.0,87,0.00,,,0.02,VWS V14.01,2013-09-03 03:28:00,
2013-09-02 23:30:00,67.6,63.6,29.84,North,357,1.0,3.0,87,0.00,,BKN047,0.02,VWS V14.01,2013-09-03 03:30:00,
2013-09-02 23:33:00,67.8,63.1,29.84,North,0,0.0,2.0,85,0.00,,,0.02,VWS V14.01,2013-09-03 03:33:00,
2013-09-02 23:38:00,67.9,62.9,29.84,North,0,0.0,0.0,84,0.00,,,0.02,VWS V14.01,2013-09-03 03:38:00,
2013-09-02 23:43:00,68.3,62.9,29.84,North,0,1.0,3.0,83,0.00,,,0.02,VWS V14.01,2013-09-03 03:43:00,
2013-09-02 23:45:00,68.3,62.6,29.84,North,11,0.0,3.0,82,0.00,,BKN047,0.02,VWS V14.01,2013-09-03 03:45:00,
2013-09-02 23:48:00,68.3,62.6,29.84,North,10,0.0,3.0,82,0.00,,,0.02,VWS V14.01,2013-09-03 03:48:00,
2013-09-02 23:53:00,68.1,62.4,29.84,North,10,0.0,0.0,82,0.00,,,0.02,VWS V14.01,2013-09-03 03:53:00,
2013-09-02 23:58:00,67.9,62.2,29.84,North,0,0.0,3.0,82,0.00,,,0.02,VWS V14.01,2013-09-03 03:58:00,